createdAt,value
2023-03-29T00:01:50.397Z,22.48
2023-03-29T00:04:20.245Z,19.75
2023-03-29T00:06:50.694Z,19.70
2023-03-29T00:09:20.229Z,23.83
2023-03-29T00:11:48.821Z,22.60
2023-03-29T00:14:17.423Z,24.52
2023-03-29T00:16:47.936Z,19.67
2023-03-29T00:19:16.690Z,21.70
2023-03-29T00:21:45.132Z,16.05
2023-03-29T00:24:13.419Z,18.15
2023-03-29T00:26:42.089Z,16.48
2023-03-29T00:29:10.843Z,15.80
2023-03-29T00:31:39.415Z,22.00
2023-03-29T00:34:09.605Z,19.67
2023-03-29T00:36:40.902Z,15.60
2023-03-29T00:39:09.765Z,20.08
2023-03-29T00:41:38.345Z,18.85
2023-03-29T00:44:06.808Z,23.98
2023-03-29T00:46:36.187Z,23.52
2023-03-29T00:49:09.805Z,18.52
2023-03-29T00:51:41.407Z,27.48
2023-03-29T00:54:15.361Z,25.58
2023-03-29T00:56:46.404Z,23.90
2023-03-29T00:59:20.099Z,19.85
2023-03-29T01:01:54.983Z,19.75
2023-03-29T01:04:31.160Z,23.85
2023-03-29T01:07:08.818Z,20.88
2023-03-29T01:09:41.057Z,24.70
2023-03-29T01:12:18.567Z,17.40
2023-03-29T01:14:55.040Z,19.40
2023-03-29T01:17:25.611Z,23.08
2023-03-29T01:20:00.387Z,26.42
2023-03-29T01:22:38.749Z,18.45
2023-03-29T01:25:17.394Z,21.52
2023-03-29T01:27:57.259Z,21.50
2023-03-29T01:30:32.026Z,18.55
2023-03-29T01:33:07.656Z,22.67
2023-03-29T01:35:42.957Z,21.85
2023-03-29T01:38:17.195Z,22.20
2023-03-29T01:40:45.673Z,20.45
2023-03-29T01:43:24.960Z,21.00
2023-03-29T01:46:02.483Z,23.60
2023-03-29T01:48:34.421Z,15.52
2023-03-29T01:51:08.980Z,23.27
2023-03-29T01:53:42.873Z,24.80
2023-03-29T01:56:16.729Z,24.58
2023-03-29T01:58:51.316Z,25.90
2023-03-29T02:01:26.219Z,23.23
2023-03-29T02:04:02.286Z,20.67
2023-03-29T02:06:34.288Z,21.65
2023-03-29T02:09:05.030Z,28.00
2023-03-29T02:11:33.661Z,25.40
2023-03-29T02:14:04.125Z,25.95
2023-03-29T02:16:36.911Z,25.58
2023-03-29T02:19:07.958Z,24.50
2023-03-29T02:21:42.561Z,25.80
2023-03-29T02:24:15.653Z,28.83
2023-03-29T02:26:44.449Z,22.25
2023-03-29T02:29:14.961Z,23.00
2023-03-29T02:31:49.594Z,22.52
2023-03-29T02:34:24.874Z,21.13
2023-03-29T02:36:56.855Z,27.48
2023-03-29T02:39:27.671Z,24.35
2023-03-29T02:41:57.914Z,26.27
2023-03-29T02:44:31.629Z,21.20
2023-03-29T02:47:04.604Z,20.63
2023-03-29T02:49:33.186Z,20.25
2023-03-29T02:52:12.059Z,22.08
2023-03-29T02:54:43.928Z,18.92
2023-03-29T02:57:13.978Z,17.77
2023-03-29T02:59:45.292Z,19.38
2023-03-29T03:02:14.074Z,21.52
2023-03-29T03:04:43.401Z,24.13
2023-03-29T03:07:12.465Z,21.90
2023-03-29T03:09:41.286Z,19.17
2023-03-29T03:12:10.097Z,18.05
2023-03-29T03:14:38.666Z,25.23
2023-03-29T03:17:08.866Z,23.83
2023-03-29T03:19:38.576Z,17.15
2023-03-29T03:22:08.054Z,19.33
2023-03-29T03:24:36.925Z,23.70
2023-03-29T03:27:08.700Z,19.15
2023-03-29T03:29:38.706Z,17.90
2023-03-29T03:32:09.163Z,15.23
2023-03-29T03:34:38.977Z,14.55
2023-03-29T03:37:07.648Z,15.45
2023-03-29T03:39:37.618Z,14.63
2023-03-29T03:42:08.397Z,14.88
2023-03-29T03:44:38.475Z,17.85
2023-03-29T03:47:09.257Z,17.73
2023-03-29T03:49:37.816Z,14.77
2023-03-29T03:52:06.771Z,16.65
2023-03-29T03:54:35.494Z,17.25
2023-03-29T03:57:03.998Z,17.80
2023-03-29T03:59:32.926Z,21.83
2023-03-29T04:02:02.103Z,17.92
2023-03-29T04:04:32.070Z,20.38
2023-03-29T04:07:03.080Z,14.50
2023-03-29T04:09:32.454Z,12.82
2023-03-29T04:12:02.355Z,14.95
2023-03-29T04:14:32.381Z,17.20
2023-03-29T04:17:00.881Z,13.65
2023-03-29T04:19:29.517Z,14.15
2023-03-29T04:22:00.033Z,15.20
2023-03-29T04:24:28.559Z,15.23
2023-03-29T04:26:57.140Z,15.63
2023-03-29T04:29:26.227Z,15.90
2023-03-29T04:31:56.721Z,10.20
2023-03-29T04:34:25.137Z,10.55
2023-03-29T04:36:53.994Z,10.10
2023-03-29T04:39:34.265Z,14.25
2023-03-29T04:42:03.063Z,16.85
2023-03-29T04:44:33.599Z,12.13
2023-03-29T04:47:02.111Z,16.55
2023-03-29T04:49:30.614Z,13.95
2023-03-29T04:52:01.029Z,15.50
2023-03-29T04:54:31.149Z,20.60
2023-03-29T04:56:59.885Z,23.40
2023-03-29T04:59:28.632Z,21.88
2023-03-29T05:01:57.185Z,23.58
2023-03-29T05:04:26.202Z,26.55
2023-03-29T05:06:54.787Z,20.17
2023-03-29T05:09:23.626Z,11.48
2023-03-29T05:11:53.777Z,12.55
2023-03-29T05:14:23.656Z,14.43
2023-03-29T05:16:52.384Z,18.70
2023-03-29T05:19:22.416Z,19.52
2023-03-29T05:21:51.362Z,12.05
2023-03-29T05:24:20.514Z,16.80
2023-03-29T05:26:52.036Z,13.60
2023-03-29T05:29:24.072Z,10.13
2023-03-29T05:31:54.506Z,10.18
2023-03-29T05:34:23.214Z,18.27
2023-03-29T05:36:52.448Z,13.82
2023-03-29T05:39:21.398Z,15.85
2023-03-29T05:41:50.410Z,9.75
2023-03-29T05:44:19.173Z,10.20
2023-03-29T05:46:49.109Z,9.23
2023-03-29T05:49:17.638Z,9.50
2023-03-29T05:51:46.555Z,8.48
2023-03-29T05:54:15.320Z,8.27
2023-03-29T05:56:44.179Z,9.23
2023-03-29T05:59:13.905Z,13.45
2023-03-29T06:01:42.883Z,9.07
2023-03-29T06:04:13.044Z,11.98
2023-03-29T06:06:42.113Z,6.72
2023-03-29T06:09:10.710Z,9.27
2023-03-29T06:11:40.968Z,6.97
2023-03-29T06:14:09.429Z,3.78
2023-03-29T06:16:38.724Z,6.10
2023-03-29T06:19:08.791Z,6.63
2023-03-29T06:21:38.894Z,9.05
2023-03-29T06:24:13.375Z,7.97
2023-03-29T06:26:42.290Z,6.90
2023-03-29T06:29:11.109Z,3.15
2023-03-29T06:31:39.551Z,2.90
2023-03-29T06:34:08.283Z,5.50
2023-03-29T06:36:36.847Z,4.53
2023-03-29T06:39:08.786Z,3.40
2023-03-29T06:41:37.318Z,2.95
2023-03-29T06:44:05.809Z,5.72
2023-03-29T06:46:34.399Z,3.22
2023-03-29T06:49:02.837Z,3.90
2023-03-29T06:51:38.408Z,4.35
2023-03-29T06:54:08.752Z,3.85
2023-03-29T06:56:37.425Z,1.63
2023-03-29T06:59:05.840Z,2.55
2023-03-29T07:01:34.770Z,2.97
2023-03-29T07:04:05.031Z,2.45
2023-03-29T07:06:33.908Z,2.42
2023-03-29T07:09:10.285Z,3.25
2023-03-29T07:11:40.656Z,2.72
2023-03-29T07:14:09.840Z,3.97
2023-03-29T07:16:38.558Z,1.35
2023-03-29T07:19:09.038Z,6.05
2023-03-29T07:21:38.033Z,3.05
2023-03-29T07:24:07.083Z,2.45
2023-03-29T07:26:35.492Z,1.33
2023-03-29T07:29:06.593Z,2.20
2023-03-29T07:31:38.855Z,4.75
2023-03-29T07:34:11.012Z,2.60
2023-03-29T07:36:40.636Z,2.35
2023-03-29T07:39:10.046Z,2.95
2023-03-29T07:41:38.792Z,3.78
2023-03-29T07:44:10.632Z,5.53
2023-03-29T07:46:39.390Z,5.55
2023-03-29T07:49:09.028Z,4.43
2023-03-29T07:51:38.525Z,4.13
2023-03-29T07:54:07.021Z,3.35
2023-03-29T07:56:35.325Z,8.13
2023-03-29T07:59:03.944Z,6.60
2023-03-29T08:01:34.499Z,6.78
2023-03-29T08:04:03.226Z,4.55
2023-03-29T08:06:31.680Z,7.15
2023-03-29T08:09:00.254Z,4.63
2023-03-29T08:11:28.779Z,4.15
2023-03-29T08:13:59.426Z,4.25
2023-03-29T08:16:28.283Z,3.42
2023-03-29T08:18:58.355Z,5.25
2023-03-29T08:21:28.050Z,4.25
2023-03-29T08:23:56.744Z,2.17
2023-03-29T08:26:25.246Z,3.35
2023-03-29T08:28:53.711Z,4.72
2023-03-29T08:31:22.318Z,3.42
2023-03-29T08:33:50.851Z,3.63
2023-03-29T08:36:21.325Z,4.38
2023-03-29T08:38:50.788Z,3.85
2023-03-29T08:41:36.090Z,5.78
2023-03-29T08:44:21.940Z,2.80
2023-03-29T08:47:01.101Z,3.17
2023-03-29T08:49:32.346Z,4.60
2023-03-29T08:52:06.995Z,2.83
2023-03-29T08:54:38.704Z,3.60
2023-03-29T08:57:17.673Z,4.50
2023-03-29T08:59:51.097Z,1.85
2023-03-29T09:02:24.629Z,4.15
2023-03-29T09:04:57.408Z,4.07
2023-03-29T09:07:28.620Z,3.40
2023-03-29T09:09:57.246Z,3.33
2023-03-29T09:12:41.573Z,1.63
2023-03-29T09:15:16.617Z,1.13
2023-03-29T09:17:57.752Z,1.85
2023-03-29T09:20:39.213Z,2.15
2023-03-29T09:23:25.219Z,3.40
2023-03-29T09:26:03.453Z,2.25
2023-03-29T09:28:38.707Z,4.13
2023-03-29T09:31:13.797Z,1.88
2023-03-29T09:33:45.731Z,1.67
2023-03-29T09:36:19.770Z,2.67
2023-03-29T09:38:54.639Z,3.20
2023-03-29T09:41:28.158Z,2.28
2023-03-29T09:44:00.002Z,1.85
2023-03-29T09:46:31.050Z,0.98
2023-03-29T09:48:59.790Z,2.95
2023-03-29T09:51:32.348Z,1.08
2023-03-29T09:54:02.613Z,5.45
2023-03-29T09:56:31.618Z,1.65
2023-03-29T09:59:00.106Z,4.57
2023-03-29T10:01:38.717Z,2.90
2023-03-29T10:04:09.901Z,6.00
2023-03-29T10:06:43.647Z,3.53
2023-03-29T10:09:21.741Z,3.15
2023-03-29T10:11:54.002Z,2.95
2023-03-29T10:14:34.979Z,3.85
2023-03-29T10:17:07.016Z,5.10
2023-03-29T10:19:37.180Z,3.00
2023-03-29T10:22:08.106Z,2.80
2023-03-29T10:24:38.157Z,2.40
2023-03-29T10:27:12.251Z,2.65
2023-03-29T10:29:42.631Z,2.55
2023-03-29T10:32:19.494Z,5.18
2023-03-29T10:34:49.394Z,3.08
2023-03-29T10:37:19.710Z,3.15
2023-03-29T10:39:50.622Z,3.03
2023-03-29T10:42:25.002Z,3.25
2023-03-29T10:44:58.552Z,2.83
2023-03-29T10:47:28.372Z,3.72
2023-03-29T10:49:59.449Z,1.65
2023-03-29T10:52:30.741Z,3.30
2023-03-29T10:55:00.961Z,3.05
2023-03-29T10:57:39.206Z,4.15
2023-03-29T11:00:19.018Z,1.75
2023-03-29T11:03:22.080Z,2.50
2023-03-29T11:05:58.810Z,3.65
2023-03-29T11:08:50.274Z,3.00
2023-03-29T11:11:41.385Z,1.65
2023-03-29T11:14:18.498Z,1.60
2023-03-29T11:16:55.463Z,5.63
2023-03-29T11:19:42.976Z,2.63
2023-03-29T11:22:18.480Z,1.77
2023-03-29T11:25:10.248Z,1.00
2023-03-29T11:27:48.947Z,1.40
2023-03-29T11:30:25.545Z,1.85
2023-03-29T11:33:03.916Z,0.70
2023-03-29T11:35:44.056Z,1.15
2023-03-29T11:38:24.747Z,1.92
2023-03-29T11:41:01.126Z,1.17
2023-03-29T11:43:36.416Z,5.63
2023-03-29T11:46:13.622Z,4.70
2023-03-29T11:48:49.426Z,3.13
2023-03-29T11:51:23.599Z,2.67
2023-03-29T11:54:02.020Z,2.00
2023-03-29T11:56:36.332Z,4.47
2023-03-29T11:59:13.191Z,3.35
2023-03-29T12:01:47.927Z,4.38
2023-03-29T12:04:23.610Z,7.03
2023-03-29T12:07:00.372Z,7.40
2023-03-29T12:09:34.942Z,8.95
2023-03-29T12:12:11.040Z,5.72
2023-03-29T12:14:54.782Z,7.10
2023-03-29T12:17:29.768Z,9.60
2023-03-29T12:20:08.404Z,8.55
2023-03-29T12:22:39.525Z,9.93
2023-03-29T12:25:17.723Z,11.95
2023-03-29T12:28:00.202Z,13.88
2023-03-29T12:30:44.665Z,12.02
2023-03-29T12:33:34.046Z,13.38
2023-03-29T12:36:21.599Z,15.40
2023-03-29T12:38:53.477Z,12.93
2023-03-29T12:41:25.211Z,11.38
2023-03-29T12:43:53.835Z,13.15
2023-03-29T12:46:27.022Z,14.40
2023-03-29T12:48:58.839Z,18.02
2023-03-29T12:51:33.320Z,12.77
2023-03-29T12:54:08.939Z,20.85
2023-03-29T12:56:41.624Z,18.98
2023-03-29T12:59:25.945Z,16.63
2023-03-29T13:02:04.554Z,21.40
2023-03-29T13:04:40.023Z,22.10
2023-03-29T13:07:16.457Z,17.13
2023-03-29T13:09:54.025Z,21.65
2023-03-29T13:12:28.873Z,19.33
2023-03-29T13:15:01.906Z,25.60
2023-03-29T13:17:45.368Z,23.77
2023-03-29T13:20:27.159Z,20.58
2023-03-29T13:23:11.063Z,21.73
2023-03-29T13:25:58.149Z,25.50
2023-03-29T13:28:35.876Z,24.52
2023-03-29T13:31:12.482Z,27.52
2023-03-29T13:33:55.669Z,24.70
2023-03-29T13:36:46.382Z,28.63
2023-03-29T13:39:23.199Z,24.25
2023-03-29T13:41:52.882Z,32.08
2023-03-29T13:44:30.942Z,30.83
2023-03-29T13:47:06.093Z,30.10
2023-03-29T13:49:37.407Z,35.33
2023-03-29T13:52:16.577Z,28.20
2023-03-29T13:54:52.409Z,30.10
2023-03-29T13:57:26.395Z,34.45
2023-03-29T14:00:01.033Z,29.45
2023-03-29T14:02:39.369Z,36.58
2023-03-29T14:05:14.261Z,37.53
2023-03-29T14:07:48.274Z,32.50
2023-03-29T14:10:20.808Z,31.98
2023-03-29T14:12:50.289Z,27.63
2023-03-29T14:15:25.569Z,26.33
2023-03-29T14:18:00.679Z,27.15
2023-03-29T14:20:34.397Z,27.60
2023-03-29T14:23:02.817Z,32.35
2023-03-29T14:25:32.532Z,32.22
2023-03-29T14:28:01.445Z,43.78
2023-03-29T14:30:32.697Z,31.55
2023-03-29T14:33:05.497Z,33.92
2023-03-29T14:35:35.713Z,25.63
2023-03-29T14:38:04.434Z,28.20
2023-03-29T14:40:35.060Z,28.88
2023-03-29T14:43:08.566Z,31.10
2023-03-29T14:45:38.144Z,29.75
2023-03-29T14:48:07.533Z,23.77
2023-03-29T14:50:38.237Z,32.85
2023-03-29T14:53:08.030Z,25.33
2023-03-29T14:55:37.020Z,27.85
2023-03-29T14:58:18.083Z,21.85
2023-03-29T15:00:50.796Z,30.17
2023-03-29T15:03:20.261Z,25.70
2023-03-29T15:05:54.323Z,31.52
2023-03-29T15:08:32.660Z,30.23
2023-03-29T15:11:01.972Z,36.70
2023-03-29T15:13:32.186Z,26.17
2023-03-29T15:16:05.920Z,36.28
2023-03-29T15:18:40.376Z,30.83
2023-03-29T15:21:14.176Z,40.78
2023-03-29T15:23:49.429Z,29.85
2023-03-29T15:26:23.637Z,39.83
2023-03-29T15:28:56.007Z,29.88
2023-03-29T15:31:28.545Z,38.75
2023-03-29T15:34:06.972Z,35.35
2023-03-29T15:36:42.765Z,39.15
2023-03-29T15:39:14.265Z,34.58
2023-03-29T15:41:43.124Z,31.02
2023-03-29T15:44:12.293Z,34.67
2023-03-29T15:46:40.748Z,39.60
2023-03-29T15:49:12.658Z,36.55
2023-03-29T15:51:42.931Z,33.90
2023-03-29T15:54:11.782Z,32.40
2023-03-29T15:56:48.255Z,30.98
2023-03-29T15:59:18.434Z,36.70
2023-03-29T16:01:47.978Z,36.90
2023-03-29T16:04:18.473Z,34.45
2023-03-29T16:06:50.280Z,46.47
2023-03-29T16:09:18.803Z,43.72
2023-03-29T16:11:48.200Z,35.50
2023-03-29T16:14:24.463Z,33.90
2023-03-29T16:16:53.869Z,44.00
2023-03-29T16:19:23.169Z,35.22
2023-03-29T16:21:54.396Z,33.95
2023-03-29T16:24:25.638Z,29.70
2023-03-29T16:26:56.060Z,37.25
2023-03-29T16:29:25.530Z,37.10
2023-03-29T16:31:55.032Z,34.03
2023-03-29T16:34:24.376Z,37.22
2023-03-29T16:36:54.606Z,39.38
2023-03-29T16:39:22.880Z,31.75
2023-03-29T16:41:51.214Z,37.70
2023-03-29T16:44:23.777Z,37.55
2023-03-29T16:46:54.129Z,36.28
2023-03-29T16:49:24.425Z,32.58
2023-03-29T16:51:54.682Z,30.85
2023-03-29T16:54:26.301Z,34.60
2023-03-29T16:56:54.737Z,36.40
2023-03-29T16:59:24.181Z,37.80
2023-03-29T17:01:52.753Z,30.92
2023-03-29T17:04:21.444Z,42.40
2023-03-29T17:06:50.225Z,28.08
2023-03-29T17:09:20.335Z,36.38
2023-03-29T17:11:48.932Z,32.17
2023-03-29T17:14:17.529Z,39.90
2023-03-29T17:16:46.633Z,31.63
2023-03-29T17:19:15.125Z,41.38
2023-03-29T17:21:44.036Z,33.60
2023-03-29T17:24:12.737Z,31.15
2023-03-29T17:26:45.673Z,45.47
2023-03-29T17:29:14.513Z,26.75
2023-03-29T17:31:47.963Z,33.70
2023-03-29T17:34:16.554Z,31.63
2023-03-29T17:36:46.071Z,31.98
2023-03-29T17:39:15.591Z,31.38
2023-03-29T17:41:47.909Z,24.10
2023-03-29T17:44:16.625Z,25.85
2023-03-29T17:46:45.226Z,32.47
2023-03-29T17:49:14.208Z,28.85
2023-03-29T17:51:42.762Z,35.67
2023-03-29T17:54:11.376Z,36.55
2023-03-29T17:56:40.020Z,33.25
2023-03-29T17:59:13.030Z,34.58
2023-03-29T18:01:42.019Z,36.97
2023-03-29T18:04:10.816Z,39.65
2023-03-29T18:06:39.514Z,31.98
2023-03-29T18:09:09.984Z,35.75
2023-03-29T18:11:39.434Z,30.90
2023-03-29T18:14:08.076Z,34.53
2023-03-29T18:16:38.333Z,34.35
2023-03-29T18:19:07.180Z,44.30
2023-03-29T18:21:35.534Z,37.42
2023-03-29T18:24:04.349Z,32.75
2023-03-29T18:26:33.805Z,32.10
2023-03-29T18:29:02.318Z,38.33
2023-03-29T18:31:32.034Z,37.10
2023-03-29T18:34:01.804Z,34.42
2023-03-29T18:36:30.711Z,36.67
2023-03-29T18:39:05.915Z,34.80
2023-03-29T18:41:34.917Z,28.20
2023-03-29T18:44:03.734Z,35.88
2023-03-29T18:46:33.506Z,29.35
2023-03-29T18:49:04.502Z,25.95
2023-03-29T18:51:33.232Z,30.70
2023-03-29T18:54:02.382Z,36.20
2023-03-29T18:56:31.055Z,36.22
2023-03-29T18:59:05.172Z,30.65
2023-03-29T19:01:36.754Z,38.33
2023-03-29T19:04:06.798Z,28.33
2023-03-29T19:06:36.362Z,26.25
2023-03-29T19:09:05.594Z,31.40
2023-03-29T19:11:36.248Z,30.48
2023-03-29T19:14:08.755Z,29.25
2023-03-29T19:16:37.535Z,30.10
2023-03-29T19:19:08.848Z,31.35
2023-03-29T19:21:38.844Z,33.72
2023-03-29T19:24:08.731Z,27.55
2023-03-29T19:26:37.682Z,32.80
2023-03-29T19:29:06.167Z,25.73
2023-03-29T19:31:38.202Z,34.75
2023-03-29T19:34:11.038Z,29.33
2023-03-29T19:36:40.084Z,33.17
2023-03-29T19:39:09.674Z,26.52
2023-03-29T19:41:39.478Z,24.20
2023-03-29T19:44:09.996Z,33.97
2023-03-29T19:46:38.653Z,30.70
2023-03-29T19:49:09.868Z,29.23
2023-03-29T19:51:38.445Z,25.52
2023-03-29T19:54:08.201Z,35.33
2023-03-29T19:56:37.441Z,22.92
2023-03-29T19:59:06.448Z,35.58
2023-03-29T20:01:37.303Z,31.42
2023-03-29T20:04:06.207Z,28.70
2023-03-29T20:06:36.883Z,25.80
2023-03-29T20:09:05.695Z,32.92
2023-03-29T20:11:34.424Z,37.88
2023-03-29T20:14:02.816Z,31.67
2023-03-29T20:16:34.538Z,30.42
2023-03-29T20:19:06.123Z,32.15
2023-03-29T20:21:37.930Z,34.97
2023-03-29T20:24:08.900Z,30.70
2023-03-29T20:26:38.483Z,28.40
2023-03-29T20:29:08.323Z,32.38
2023-03-29T20:31:37.043Z,34.55
2023-03-29T20:34:06.127Z,31.55
2023-03-29T20:39:06.624Z,36.15
2023-03-29T20:41:38.682Z,27.15
2023-03-29T20:44:07.573Z,35.10
2023-03-29T20:46:38.033Z,33.75
2023-03-29T20:49:09.176Z,33.92
2023-03-29T20:51:39.833Z,34.60
2023-03-29T20:54:10.432Z,31.42
2023-03-29T20:56:42.680Z,28.23
2023-03-29T20:59:12.302Z,34.20
2023-03-29T21:01:41.292Z,35.92
2023-03-29T21:04:11.153Z,33.35
2023-03-29T21:06:41.615Z,33.83
2023-03-29T21:09:09.972Z,32.00
2023-03-29T21:11:38.872Z,35.60
2023-03-29T21:14:07.235Z,35.05
2023-03-29T21:16:35.960Z,34.60
2023-03-29T21:19:04.651Z,40.50
2023-03-29T21:21:33.835Z,34.22
2023-03-29T21:24:04.612Z,34.75
2023-03-29T21:26:33.180Z,28.92
2023-03-29T21:29:02.120Z,32.03
2023-03-29T21:31:30.773Z,33.22
2023-03-29T21:33:59.806Z,32.47
2023-03-29T21:36:28.294Z,37.42
2023-03-29T21:38:57.260Z,39.88
2023-03-29T21:41:30.011Z,28.30
2023-03-29T21:43:58.837Z,31.95
2023-03-29T21:46:27.515Z,30.02
2023-03-29T21:48:56.054Z,36.65
2023-03-29T21:51:24.526Z,38.78
2023-03-29T21:53:53.198Z,36.65
2023-03-29T21:56:23.450Z,44.08
2023-03-29T21:58:53.358Z,35.95
2023-03-29T22:01:22.168Z,34.45
2023-03-29T22:03:50.804Z,39.50
2023-03-29T22:06:20.805Z,40.03
2023-03-29T22:08:53.551Z,41.90
2023-03-29T22:11:23.661Z,33.78
2023-03-29T22:13:54.568Z,35.42
2023-03-29T22:16:26.031Z,40.13
2023-03-29T22:18:54.881Z,32.83
2023-03-29T22:21:25.590Z,38.35
2023-03-29T22:23:56.106Z,41.65
2023-03-29T22:26:27.777Z,36.05
2023-03-29T22:28:59.718Z,42.78
2023-03-29T22:31:30.010Z,40.30
2023-03-29T22:34:01.094Z,36.22
2023-03-29T22:36:31.721Z,31.77
2023-03-29T22:39:00.295Z,48.55
2023-03-29T22:41:29.456Z,38.28
2023-03-29T22:44:01.374Z,41.85
2023-03-29T22:46:30.298Z,39.30
2023-03-29T22:48:59.176Z,38.67
2023-03-29T22:51:27.762Z,38.53
2023-03-29T22:53:56.429Z,35.38
2023-03-29T22:56:25.173Z,37.83
2023-03-29T22:58:53.874Z,37.22
2023-03-29T23:01:24.134Z,40.42
2023-03-29T23:03:52.607Z,45.05
2023-03-29T23:06:21.660Z,34.03
2023-03-29T23:08:50.536Z,34.92
2023-03-29T23:11:18.895Z,36.28
2023-03-29T23:13:48.972Z,39.03
2023-03-29T23:16:20.911Z,51.40
2023-03-29T23:18:51.305Z,48.60
2023-03-29T23:21:19.681Z,35.83
2023-03-29T23:23:48.314Z,40.50
2023-03-29T23:26:17.456Z,23.50
2023-03-29T23:28:45.993Z,33.15
2023-03-29T23:31:18.943Z,34.20
2023-03-29T23:33:47.699Z,34.45
2023-03-29T23:36:20.491Z,37.58
2023-03-29T23:38:49.359Z,32.72
2023-03-29T23:41:18.971Z,34.13
2023-03-29T23:43:48.558Z,42.50
2023-03-29T23:46:19.125Z,42.97
2023-03-29T23:48:49.202Z,38.10
2023-03-29T23:51:23.488Z,41.55
2023-03-29T23:53:52.760Z,32.17
2023-03-29T23:56:21.763Z,44.65
2023-03-29T23:58:51.076Z,33.10
